createdAt,value
2022-11-09T00:00:08.445Z,3.23
2022-11-09T00:02:35.169Z,3.27
2022-11-09T00:05:02.489Z,3.40
2022-11-09T00:07:31.720Z,2.87
2022-11-09T00:09:58.516Z,3.87
2022-11-09T00:12:25.928Z,3.33
2022-11-09T00:14:52.966Z,3.20
2022-11-09T00:17:19.828Z,3.07
2022-11-09T00:19:46.614Z,3.13
2022-11-09T00:22:13.302Z,3.40
2022-11-09T00:24:40.963Z,2.90
2022-11-09T00:27:07.672Z,3.07
2022-11-09T00:29:35.083Z,2.70
2022-11-09T00:32:01.787Z,3.00
2022-11-09T00:34:28.488Z,2.87
2022-11-09T00:36:55.864Z,2.97
2022-11-09T00:39:22.568Z,2.90
2022-11-09T00:41:49.404Z,2.70
2022-11-09T00:44:16.046Z,2.80
2022-11-09T00:46:44.214Z,2.50
2022-11-09T00:49:12.009Z,2.60
2022-11-09T00:51:38.713Z,2.90
2022-11-09T00:54:07.906Z,3.00
2022-11-09T00:56:35.312Z,2.33
2022-11-09T00:59:03.298Z,3.27
2022-11-09T01:01:30.042Z,3.27
2022-11-09T01:03:57.375Z,3.47
2022-11-09T01:06:26.683Z,3.00
2022-11-09T01:08:55.333Z,2.90
2022-11-09T01:11:23.439Z,2.97
2022-11-09T01:13:53.634Z,2.53
2022-11-09T01:16:22.772Z,2.60
2022-11-09T01:18:53.979Z,3.00
2022-11-09T01:21:20.816Z,2.97
2022-11-09T01:23:47.489Z,2.60
2022-11-09T01:26:15.808Z,2.77
2022-11-09T01:28:43.833Z,2.70
2022-11-09T01:31:13.909Z,2.83
2022-11-09T01:33:41.640Z,2.93
2022-11-09T01:36:14.660Z,2.90
2022-11-09T01:38:42.552Z,2.70
2022-11-09T01:41:16.626Z,2.40
2022-11-09T01:43:44.010Z,2.90
2022-11-09T01:46:19.135Z,2.03
2022-11-09T01:48:52.009Z,2.43
2022-11-09T01:51:22.219Z,2.53
2022-11-09T01:53:53.158Z,2.47
2022-11-09T01:56:20.448Z,2.50
2022-11-09T01:59:00.912Z,2.87
2022-11-09T02:01:30.376Z,2.40
2022-11-09T02:04:33.899Z,2.30
2022-11-09T02:07:00.937Z,2.63
2022-11-09T02:09:31.626Z,2.47
2022-11-09T02:12:00.147Z,2.47
2022-11-09T02:14:29.658Z,2.50
2022-11-09T02:16:57.173Z,2.33
2022-11-09T02:19:24.415Z,2.80
2022-11-09T02:21:51.316Z,2.40
2022-11-09T02:24:18.924Z,2.20
2022-11-09T02:26:50.487Z,2.27
2022-11-09T02:29:22.648Z,2.10
2022-11-09T02:31:54.532Z,2.50
2022-11-09T02:34:22.201Z,2.20
2022-11-09T02:36:48.914Z,2.57
2022-11-09T02:39:26.036Z,2.83
2022-11-09T02:42:00.620Z,2.17
2022-11-09T02:44:36.563Z,2.30
2022-11-09T02:47:03.443Z,2.63
2022-11-09T02:49:30.751Z,2.33
2022-11-09T02:51:57.499Z,2.90
2022-11-09T02:54:24.785Z,2.57
2022-11-09T02:56:53.281Z,2.70
2022-11-09T02:59:20.582Z,2.13
2022-11-09T03:01:47.577Z,2.53
2022-11-09T03:04:14.382Z,2.43
2022-11-09T03:06:41.676Z,2.60
2022-11-09T03:09:14.906Z,2.17
2022-11-09T03:11:43.154Z,2.90
2022-11-09T03:14:12.744Z,2.30
2022-11-09T03:16:50.168Z,2.20
2022-11-09T03:19:17.685Z,2.50
2022-11-09T03:21:46.375Z,2.63
2022-11-09T03:24:13.076Z,3.13
2022-11-09T03:26:41.526Z,3.23
2022-11-09T03:29:08.681Z,2.90
2022-11-09T03:31:35.765Z,2.87
2022-11-09T03:34:05.620Z,2.80
2022-11-09T03:36:35.284Z,3.03
2022-11-09T03:39:01.971Z,2.80
2022-11-09T03:41:28.678Z,2.40
2022-11-09T03:43:55.475Z,2.40
2022-11-09T03:46:22.149Z,2.50
2022-11-09T03:48:48.935Z,2.90
2022-11-09T03:51:15.616Z,3.77
2022-11-09T03:53:42.985Z,2.87
2022-11-09T03:56:09.753Z,3.00
2022-11-09T03:58:36.905Z,4.07
2022-11-09T04:01:04.138Z,3.37
2022-11-09T04:03:30.823Z,3.67
2022-11-09T04:05:59.253Z,3.63
2022-11-09T04:08:26.938Z,3.30
2022-11-09T04:10:53.680Z,4.20
2022-11-09T04:13:20.693Z,4.03
2022-11-09T04:15:47.571Z,3.57
2022-11-09T04:18:16.112Z,3.40
2022-11-09T04:20:43.519Z,3.47
2022-11-09T04:23:13.601Z,3.23
2022-11-09T04:25:42.041Z,2.97
2022-11-09T04:28:12.124Z,2.70
2022-11-09T04:30:39.133Z,2.60
2022-11-09T04:33:06.182Z,2.73
2022-11-09T04:35:34.558Z,2.80
2022-11-09T04:38:06.654Z,2.57
2022-11-09T04:40:34.996Z,2.20
2022-11-09T04:43:03.762Z,2.20
2022-11-09T04:45:30.617Z,2.00
2022-11-09T04:48:04.569Z,2.17
2022-11-09T04:50:32.180Z,2.10
2022-11-09T04:53:13.349Z,2.40
2022-11-09T04:55:40.890Z,2.23
2022-11-09T04:58:08.629Z,2.30
2022-11-09T05:00:36.027Z,2.40
2022-11-09T05:03:04.674Z,2.40
2022-11-09T05:05:34.549Z,2.30
2022-11-09T05:08:01.668Z,2.07
2022-11-09T05:10:30.109Z,2.30
2022-11-09T05:13:03.273Z,2.50
2022-11-09T05:15:30.890Z,2.03
2022-11-09T05:17:58.693Z,2.20
2022-11-09T05:20:26.162Z,2.30
2022-11-09T05:23:12.562Z,2.10
2022-11-09T05:25:39.577Z,1.93
2022-11-09T05:28:06.337Z,2.20
2022-11-09T05:30:33.042Z,3.20
2022-11-09T05:32:59.822Z,2.57
2022-11-09T05:35:27.700Z,2.00
2022-11-09T05:37:54.506Z,2.17
2022-11-09T05:40:21.602Z,2.97
2022-11-09T05:42:48.438Z,1.77
2022-11-09T05:48:04.761Z,2.07
2022-11-09T05:50:31.731Z,1.73
2022-11-09T05:53:12.818Z,2.83
2022-11-09T05:55:39.840Z,2.40
2022-11-09T05:58:07.230Z,2.23
2022-11-09T06:00:33.943Z,1.90
2022-11-09T06:03:08.759Z,1.80
2022-11-09T06:05:37.160Z,1.90
2022-11-09T06:08:13.750Z,1.70
2022-11-09T06:10:41.867Z,1.60
2022-11-09T06:13:09.705Z,2.13
2022-11-09T06:15:36.634Z,2.07
2022-11-09T06:18:03.448Z,2.20
2022-11-09T06:20:30.641Z,1.80
2022-11-09T06:23:03.518Z,1.80
2022-11-09T06:25:33.045Z,2.13
2022-11-09T06:28:00.544Z,2.00
2022-11-09T06:30:28.388Z,2.10
2022-11-09T06:33:02.694Z,2.20
2022-11-09T06:35:29.818Z,2.50
2022-11-09T06:38:00.674Z,1.93
2022-11-09T06:40:29.244Z,1.90
2022-11-09T06:43:00.607Z,1.80
2022-11-09T06:45:29.397Z,1.73
2022-11-09T06:48:02.590Z,2.60
2022-11-09T06:50:33.050Z,2.40
2022-11-09T06:53:03.068Z,1.90
2022-11-09T06:55:31.383Z,2.33
2022-11-09T06:57:59.685Z,2.10
2022-11-09T07:00:28.741Z,2.00
2022-11-09T07:02:55.521Z,2.17
2022-11-09T07:05:22.906Z,2.17
2022-11-09T07:07:50.186Z,2.30
2022-11-09T07:10:17.595Z,2.03
2022-11-09T07:12:45.652Z,1.83
2022-11-09T07:15:13.873Z,1.90
2022-11-09T07:17:41.385Z,2.30
2022-11-09T07:20:10.055Z,1.93
2022-11-09T07:22:40.045Z,1.90
2022-11-09T07:25:08.377Z,1.80
2022-11-09T07:27:35.781Z,1.40
2022-11-09T07:30:04.363Z,1.37
2022-11-09T07:35:26.062Z,1.70
2022-11-09T07:37:52.986Z,1.43
2022-11-09T07:40:20.150Z,1.20
2022-11-09T07:42:46.981Z,1.10
2022-11-09T07:45:15.073Z,1.10
2022-11-09T07:47:42.057Z,1.13
2022-11-09T07:50:10.047Z,1.20
2022-11-09T07:52:36.743Z,0.90
2022-11-09T07:55:03.690Z,0.80
2022-11-09T07:57:30.494Z,0.90
2022-11-09T07:59:58.118Z,1.03
2022-11-09T08:02:24.887Z,1.13
2022-11-09T08:04:51.610Z,1.10
2022-11-09T08:07:18.342Z,1.20
2022-11-09T08:09:45.534Z,1.00
2022-11-09T08:12:12.899Z,0.93
2022-11-09T08:14:39.915Z,1.20
2022-11-09T08:17:06.646Z,1.00
2022-11-09T08:19:33.461Z,1.00
2022-11-09T08:22:00.693Z,1.07
2022-11-09T08:24:28.344Z,1.20
2022-11-09T08:26:55.859Z,1.30
2022-11-09T08:29:22.833Z,0.93
2022-11-09T08:31:51.485Z,1.30
2022-11-09T08:34:18.582Z,1.00
2022-11-09T08:36:45.881Z,1.20
2022-11-09T08:39:13.610Z,0.83
2022-11-09T08:41:40.328Z,1.17
2022-11-09T08:44:07.073Z,0.90
2022-11-09T08:46:38.388Z,1.40
2022-11-09T08:49:07.662Z,0.90
2022-11-09T08:51:34.411Z,0.80
2022-11-09T08:54:01.174Z,0.90
2022-11-09T08:56:28.891Z,0.97
2022-11-09T08:58:55.821Z,0.90
2022-11-09T09:01:22.929Z,1.00
2022-11-09T09:03:49.723Z,0.80
2022-11-09T09:06:16.503Z,0.70
2022-11-09T09:08:44.013Z,0.70
2022-11-09T09:11:11.276Z,0.68
2022-11-09T09:13:43.111Z,0.90
2022-11-09T09:16:16.211Z,0.60
2022-11-09T09:18:44.248Z,0.70
2022-11-09T09:21:11.970Z,0.98
2022-11-09T09:23:38.648Z,0.60
2022-11-09T09:26:05.971Z,0.60
2022-11-09T09:28:33.237Z,0.60
2022-11-09T09:31:01.672Z,0.70
2022-11-09T09:33:29.144Z,0.60
2022-11-09T09:35:57.563Z,0.70
2022-11-09T09:38:25.440Z,0.80
2022-11-09T09:41:00.481Z,0.60
2022-11-09T09:43:41.518Z,0.73
2022-11-09T09:46:34.393Z,0.60
2022-11-09T09:49:15.473Z,0.60
2022-11-09T09:52:01.605Z,0.35
2022-11-09T09:54:39.289Z,0.30
2022-11-09T09:57:21.941Z,0.60
2022-11-09T09:59:52.140Z,0.82
2022-11-09T10:02:26.171Z,0.80
2022-11-09T10:05:00.648Z,0.60
2022-11-09T10:07:27.297Z,0.68
2022-11-09T10:10:17.453Z,0.70
2022-11-09T10:12:47.149Z,0.32
2022-11-09T10:15:22.909Z,0.50
2022-11-09T10:18:23.705Z,0.65
2022-11-09T10:20:58.812Z,0.57
2022-11-09T10:23:40.249Z,0.70
2022-11-09T10:26:20.560Z,0.50
2022-11-09T10:29:15.234Z,0.68
2022-11-09T10:31:44.760Z,0.50
2022-11-09T10:34:37.059Z,0.80
2022-11-09T10:37:10.362Z,0.50
2022-11-09T10:39:52.464Z,0.60
2022-11-09T10:42:38.031Z,0.70
2022-11-09T10:45:35.801Z,0.80
2022-11-09T10:48:39.143Z,0.70
2022-11-09T10:51:35.285Z,1.40
2022-11-09T10:54:31.277Z,0.60
2022-11-09T10:57:19.625Z,0.60
2022-11-09T11:00:06.415Z,0.65
2022-11-09T11:02:53.246Z,0.70
2022-11-09T11:05:39.853Z,1.00
2022-11-09T11:08:38.411Z,1.00
2022-11-09T11:11:34.431Z,0.80
2022-11-09T11:14:34.359Z,1.73
2022-11-09T11:17:44.118Z,0.90
2022-11-09T11:20:37.606Z,0.70
2022-11-09T11:23:26.101Z,1.15
2022-11-09T11:26:23.760Z,0.90
2022-11-09T11:29:46.546Z,0.85
2022-11-09T11:32:32.598Z,0.60
2022-11-09T11:35:34.294Z,0.90
2022-11-09T11:38:36.976Z,0.90
2022-11-09T11:42:06.932Z,0.80
2022-11-09T11:45:12.751Z,0.70
2022-11-09T11:48:26.455Z,0.80
2022-11-09T11:51:19.241Z,0.68
2022-11-09T11:54:36.815Z,0.57
2022-11-09T11:57:58.242Z,1.20
2022-11-09T12:00:55.965Z,1.15
2022-11-09T12:04:21.634Z,1.13
2022-11-09T12:07:35.317Z,0.70
2022-11-09T12:11:02.050Z,0.80
2022-11-09T12:13:53.423Z,0.68
2022-11-09T12:16:52.734Z,0.55
2022-11-09T12:19:40.880Z,1.33
2022-11-09T12:22:48.420Z,0.93
2022-11-09T12:25:58.186Z,0.77
2022-11-09T12:29:19.193Z,0.93
2022-11-09T12:32:24.916Z,1.20
2022-11-09T12:35:23.309Z,1.33
2022-11-09T12:38:14.256Z,1.65
2022-11-09T12:41:06.428Z,1.33
2022-11-09T12:44:04.076Z,2.00
2022-11-09T12:46:56.325Z,3.10
2022-11-09T12:49:44.947Z,2.10
2022-11-09T12:52:32.280Z,1.58
2022-11-09T12:55:49.855Z,1.10
2022-11-09T12:58:36.980Z,1.38
2022-11-09T13:01:34.678Z,1.05
2022-11-09T13:04:21.440Z,1.60
2022-11-09T13:07:06.712Z,6.03
2022-11-09T13:09:58.294Z,1.55
2022-11-09T13:12:43.702Z,1.30
2022-11-09T13:15:32.669Z,4.63
2022-11-09T13:18:51.276Z,2.30
2022-11-09T13:21:38.787Z,1.10
2022-11-09T13:24:29.900Z,0.90
2022-11-09T13:27:33.788Z,0.77
2022-11-09T13:30:25.078Z,0.80
2022-11-09T13:33:26.658Z,1.50
2022-11-09T13:36:11.792Z,1.60
2022-11-09T13:39:29.584Z,1.45
2022-11-09T13:42:30.385Z,1.30
2022-11-09T13:45:36.087Z,1.52
2022-11-09T13:48:41.419Z,1.58
2022-11-09T13:51:36.046Z,1.40
2022-11-09T13:54:30.285Z,1.95
2022-11-09T13:57:17.180Z,1.77
2022-11-09T14:00:06.329Z,1.90
2022-11-09T14:03:06.721Z,1.63
2022-11-09T14:05:57.865Z,1.13
2022-11-09T14:08:43.958Z,1.45
2022-11-09T14:11:59.566Z,1.13
2022-11-09T14:15:03.313Z,1.73
2022-11-09T14:18:02.086Z,10.00
2022-11-09T14:21:13.914Z,3.35
2022-11-09T14:24:12.622Z,3.60
2022-11-09T14:27:09.972Z,1.95
2022-11-09T14:29:57.615Z,1.38
2022-11-09T14:32:49.541Z,3.95
2022-11-09T14:35:39.315Z,1.80
2022-11-09T14:38:28.656Z,1.67
2022-11-09T14:41:23.005Z,1.17
2022-11-09T14:44:19.816Z,1.17
2022-11-09T14:47:06.865Z,1.55
2022-11-09T14:49:52.768Z,1.67
2022-11-09T14:52:38.030Z,1.20
2022-11-09T14:55:24.915Z,1.73
2022-11-09T14:58:14.083Z,1.10
2022-11-09T15:01:20.672Z,1.50
2022-11-09T15:04:13.787Z,1.20
2022-11-09T15:07:04.771Z,0.88
2022-11-09T15:10:05.796Z,1.30
2022-11-09T15:12:55.016Z,1.57
2022-11-09T15:15:40.302Z,1.10
2022-11-09T15:18:33.489Z,1.03
2022-11-09T15:21:33.940Z,0.87
2022-11-09T15:24:20.325Z,1.10
2022-11-09T15:27:29.612Z,1.10
2022-11-09T15:30:35.246Z,0.90
2022-11-09T15:33:20.435Z,0.90
2022-11-09T15:36:20.103Z,1.00
2022-11-09T15:39:19.120Z,0.83
2022-11-09T15:42:04.958Z,0.93
2022-11-09T15:44:55.419Z,1.13
2022-11-09T15:47:41.513Z,1.10
2022-11-09T15:50:27.976Z,1.00
2022-11-09T15:53:14.006Z,1.43
2022-11-09T15:56:00.352Z,1.47
2022-11-09T15:58:48.335Z,1.27
2022-11-09T16:01:34.505Z,1.30
2022-11-09T16:04:19.768Z,1.30
2022-11-09T16:07:06.240Z,1.10
2022-11-09T16:09:51.423Z,1.10
2022-11-09T16:12:40.333Z,1.20
2022-11-09T16:15:27.761Z,1.13
2022-11-09T16:18:13.595Z,1.10
2022-11-09T16:21:06.352Z,1.10
2022-11-09T16:23:57.113Z,1.47
2022-11-09T16:26:45.426Z,1.40
2022-11-09T16:29:33.412Z,1.00
2022-11-09T16:32:19.853Z,1.40
2022-11-09T16:38:12.181Z,1.60
2022-11-09T16:41:01.549Z,1.50
2022-11-09T16:43:50.994Z,1.20
2022-11-09T16:46:36.299Z,1.53
2022-11-09T16:49:21.594Z,1.40
2022-11-09T16:52:07.055Z,1.43
2022-11-09T16:54:52.242Z,1.53
2022-11-09T16:57:37.712Z,1.37
2022-11-09T17:00:27.671Z,1.83
2022-11-09T17:03:23.276Z,1.63
2022-11-09T17:06:11.374Z,1.37
2022-11-09T17:08:57.108Z,3.00
2022-11-09T17:11:42.950Z,2.03
2022-11-09T17:14:29.109Z,1.67
2022-11-09T17:17:18.230Z,1.53
2022-11-09T17:20:07.529Z,1.40
2022-11-09T17:22:52.782Z,1.50
2022-11-09T17:25:38.813Z,2.27
2022-11-09T17:28:25.173Z,1.73
2022-11-09T17:31:13.083Z,2.47
2022-11-09T17:34:01.209Z,2.00
2022-11-09T17:37:03.792Z,1.80
2022-11-09T17:39:50.560Z,1.90
2022-11-09T17:42:36.486Z,1.93
2022-11-09T17:45:22.182Z,4.03
2022-11-09T17:48:07.487Z,2.20
2022-11-09T17:50:52.393Z,1.90
2022-11-09T17:53:38.059Z,1.83
2022-11-09T17:56:23.476Z,1.73
2022-11-09T17:59:09.334Z,1.80
2022-11-09T18:01:56.324Z,2.00
2022-11-09T18:04:41.852Z,2.00
2022-11-09T18:07:28.052Z,2.20
2022-11-09T18:10:13.173Z,1.83
2022-11-09T18:12:58.401Z,2.00
2022-11-09T18:15:43.810Z,1.60
2022-11-09T18:18:29.333Z,1.80
2022-11-09T18:21:17.681Z,1.90
2022-11-09T18:24:03.588Z,3.60
2022-11-09T18:26:49.599Z,3.43
2022-11-09T18:29:35.908Z,5.20
2022-11-09T18:32:21.966Z,6.80
2022-11-09T18:35:07.861Z,3.60
2022-11-09T18:37:53.253Z,3.53
2022-11-09T18:40:38.632Z,4.27
2022-11-09T18:43:24.016Z,6.87
2022-11-09T18:46:13.246Z,5.80
2022-11-09T18:48:59.038Z,5.87
2022-11-09T18:51:44.355Z,4.83
2022-11-09T18:54:29.997Z,5.20
2022-11-09T18:57:19.674Z,8.20
2022-11-09T19:00:06.855Z,5.67
2022-11-09T19:02:53.084Z,5.30
2022-11-09T19:05:43.717Z,5.20
2022-11-09T19:08:47.612Z,5.43
2022-11-09T19:11:32.956Z,5.90
2022-11-09T19:14:18.275Z,4.43
2022-11-09T19:17:03.832Z,3.80
2022-11-09T19:19:49.123Z,3.97
2022-11-09T19:22:37.941Z,3.90
2022-11-09T19:25:23.320Z,3.17
2022-11-09T19:28:08.679Z,2.97
2022-11-09T19:30:54.134Z,2.47
2022-11-09T19:33:39.429Z,2.87
2022-11-09T19:36:30.964Z,3.00
2022-11-09T19:39:17.862Z,2.53
2022-11-09T19:42:03.309Z,2.83
2022-11-09T19:44:53.522Z,2.83
2022-11-09T19:47:41.560Z,2.83
2022-11-09T19:50:26.903Z,2.83
2022-11-09T19:53:12.372Z,2.47
2022-11-09T19:56:04.340Z,3.20
2022-11-09T19:58:55.321Z,3.47
2022-11-09T20:01:40.368Z,3.23
2022-11-09T20:04:25.609Z,3.83
2022-11-09T20:07:11.057Z,3.13
2022-11-09T20:09:56.282Z,2.73
2022-11-09T20:12:50.831Z,2.80
2022-11-09T20:15:37.084Z,2.77
2022-11-09T20:18:23.956Z,3.70
2022-11-09T20:21:09.233Z,2.90
2022-11-09T20:23:54.923Z,3.57
2022-11-09T20:26:40.462Z,3.67
2022-11-09T20:29:25.616Z,3.00
2022-11-09T20:32:12.439Z,2.90
2022-11-09T20:34:58.214Z,3.20
2022-11-09T20:37:43.514Z,2.93
2022-11-09T20:40:28.906Z,2.70
2022-11-09T20:43:14.160Z,2.80
2022-11-09T20:46:06.016Z,2.77
2022-11-09T20:48:54.592Z,3.37
2022-11-09T20:51:40.807Z,2.47
2022-11-09T20:54:26.147Z,2.57
2022-11-09T20:57:11.565Z,2.70
2022-11-09T20:59:56.856Z,2.77
2022-11-09T21:02:43.187Z,2.27
2022-11-09T21:05:28.502Z,2.90
2022-11-09T21:08:13.779Z,2.67
2022-11-09T21:11:04.145Z,2.50
2022-11-09T21:13:51.557Z,2.47
2022-11-09T21:16:37.801Z,3.37
2022-11-09T21:19:23.019Z,3.27
2022-11-09T21:22:08.861Z,2.47
2022-11-09T21:25:12.625Z,1.87
2022-11-09T21:28:16.493Z,2.20
2022-11-09T21:31:02.573Z,2.00
2022-11-09T21:33:47.613Z,2.00
2022-11-09T21:36:32.941Z,1.90
2022-11-09T21:39:18.342Z,1.87
2022-11-09T21:42:04.723Z,1.83
2022-11-09T21:44:50.214Z,2.20
2022-11-09T21:47:35.576Z,2.00
2022-11-09T21:50:21.821Z,2.17
2022-11-09T21:53:07.356Z,2.00
2022-11-09T21:55:53.122Z,2.30
2022-11-09T21:58:39.768Z,2.00
2022-11-09T22:01:25.760Z,2.50
2022-11-09T22:04:11.670Z,2.50
2022-11-09T22:06:57.074Z,2.33
2022-11-09T22:10:08.207Z,2.40
2022-11-09T22:13:06.946Z,2.40
2022-11-09T22:16:08.321Z,2.87
2022-11-09T22:19:12.917Z,2.37
2022-11-09T22:21:58.262Z,2.30
2022-11-09T22:24:43.548Z,2.13
2022-11-09T22:27:32.374Z,2.30
2022-11-09T22:30:17.390Z,2.23
2022-11-09T22:33:02.700Z,2.20
2022-11-09T22:35:59.065Z,2.27
2022-11-09T22:38:45.549Z,1.93
2022-11-09T22:41:30.835Z,2.50
2022-11-09T22:44:16.247Z,2.40
2022-11-09T22:47:01.676Z,2.23
2022-11-09T22:49:46.901Z,2.00
2022-11-09T22:52:32.357Z,2.27
2022-11-09T22:55:18.518Z,1.70
2022-11-09T22:58:04.445Z,2.40
2022-11-09T23:00:50.640Z,2.20
2022-11-09T23:03:36.128Z,2.03
2022-11-09T23:06:23.749Z,1.97
2022-11-09T23:09:09.918Z,2.13
2022-11-09T23:11:55.282Z,2.30
2022-11-09T23:14:58.960Z,2.10
2022-11-09T23:18:02.720Z,2.37
2022-11-09T23:20:48.217Z,2.27
2022-11-09T23:23:33.601Z,2.37
2022-11-09T23:26:19.940Z,1.93
2022-11-09T23:29:06.028Z,2.07
2022-11-09T23:31:51.521Z,1.80
2022-11-09T23:34:37.038Z,2.23
2022-11-09T23:37:22.901Z,2.10
2022-11-09T23:40:09.162Z,2.40
2022-11-09T23:43:00.324Z,2.00
2022-11-09T23:45:45.956Z,1.83
2022-11-09T23:48:31.457Z,2.17
2022-11-09T23:51:18.614Z,1.90
2022-11-09T23:54:03.937Z,1.87
2022-11-09T23:56:49.464Z,2.70
2022-11-09T23:59:34.787Z,2.10
